Time;durP1;ratioP1;P1;durP2;ratioP2;P2;SDS_P1;SDS_P2;PMS_P1;PMS_P2;Temp;Humidity;BMP_temperature;BMP_pressure;BME280_temperature;BME280_humidity;BME280_pressure;Samples;Min_cycle;Max_cycle;Signal;HPM_P1;HPM_P2
2021/04/24 00:01:43;;;;;;;6.05;3.80;;;;;;;3.57;63.85;99547.48;1697365;84;21120;-71
2021/04/24 00:04:10;;;;;;;7.65;4.12;;;;;;;3.58;64.08;99543.09;1738233;82;21159;-72
2021/04/24 00:06:37;;;;;;;6.37;4.20;;;;;;;3.51;64.59;99545.61;1737753;82;21234;-72
2021/04/24 00:09:05;;;;;;;6.85;4.05;;;;;;;3.41;64.66;99549.91;1729296;82;21139;-72
2021/04/24 00:11:32;;;;;;;7.20;4.10;;;;;;;3.53;64.83;99543.75;1719499;82;21142;-72
2021/04/24 00:13:59;;;;;;;8.25;4.50;;;;;;;3.55;64.72;99549.77;1735684;82;21301;-72
2021/04/24 00:16:27;;;;;;;5.65;3.90;;;;;;;3.47;64.96;99550.59;1741262;82;21568;-71
2021/04/24 00:18:55;;;;;;;7.08;4.20;;;;;;;3.38;65.31;99553.98;1741382;82;21313;-72
2021/04/24 00:21:26;;;;;;;6.62;3.95;;;;;;;3.32;65.56;99552.94;1732362;82;21217;-72
2021/04/24 00:23:54;;;;;;;8.95;4.28;;;;;;;3.22;65.79;99549.03;1737774;82;21202;-72
2021/04/24 00:26:22;;;;;;;6.42;3.72;;;;;;;3.19;65.97;99554.40;1742167;82;21191;-71
2021/04/24 00:28:51;;;;;;;5.62;3.72;;;;;;;3.20;66.29;99554.80;1740852;82;21155;-71
2021/04/24 00:31:19;;;;;;;5.75;3.60;;;;;;;3.32;66.07;99560.78;1723389;82;21179;-73
2021/04/24 00:33:47;;;;;;;7.10;4.20;;;;;;;3.29;66.17;99557.00;1721671;82;21615;-72
2021/04/24 00:36:15;;;;;;;5.95;4.10;;;;;;;3.23;66.46;99556.80;1741222;82;21188;-71
2021/04/24 00:38:42;;;;;;;6.97;3.75;;;;;;;3.21;66.67;99564.31;1740927;82;21592;-71
2021/04/24 00:41:11;;;;;;;6.47;3.85;;;;;;;3.16;67.00;99571.06;1740002;82;21186;-71
2021/04/24 00:43:38;;;;;;;5.00;3.37;;;;;;;3.15;66.86;99565.91;1747629;82;21139;-71
2021/04/24 00:46:11;;;;;;;5.80;3.58;;;;;;;3.33;66.70;99569.48;1742002;82;21349;-72
2021/04/24 00:48:39;;;;;;;5.12;3.67;;;;;;;3.33;66.66;99563.79;1748857;82;21112;-72
2021/04/24 00:51:07;;;;;;;6.15;3.90;;;;;;;3.26;66.98;99556.68;1746770;82;21620;-72
2021/04/24 00:53:34;;;;;;;5.58;3.95;;;;;;;3.17;67.10;99563.62;1747335;82;21191;-72
2021/04/24 00:56:03;;;;;;;5.45;3.65;;;;;;;3.09;67.41;99562.61;1754055;82;21316;-72
2021/04/24 00:58:33;;;;;;;5.30;3.50;;;;;;;3.00;67.95;99556.48;1753750;82;21163;-72
2021/04/24 01:01:01;;;;;;;6.30;3.60;;;;;;;3.04;68.07;99559.34;1751989;82;21192;-72
2021/04/24 01:03:29;;;;;;;6.58;3.60;;;;;;;3.14;68.05;99555.89;1740634;81;21167;-72
2021/04/24 01:05:56;;;;;;;5.55;3.83;;;;;;;3.09;68.19;99548.23;1752725;81;21235;-72
2021/04/24 01:08:23;;;;;;;7.30;3.72;;;;;;;3.07;68.56;99554.00;1721974;82;21186;-72
2021/04/24 01:10:51;;;;;;;6.03;3.52;;;;;;;3.03;68.75;99552.45;1750149;82;21229;-72
2021/04/24 01:13:19;;;;;;;7.12;3.83;;;;;;;3.03;69.18;99550.27;1722984;83;21160;-72
2021/04/24 01:15:47;;;;;;;4.78;3.15;;;;;;;3.13;68.99;99553.35;1725147;82;21184;-72
2021/04/24 01:18:14;;;;;;;5.55;3.37;;;;;;;3.26;68.83;99557.13;1752118;82;21155;-72
2021/04/24 01:20:44;;;;;;;4.55;3.15;;;;;;;3.16;69.26;99547.98;1746325;82;21195;-72
2021/04/24 01:23:12;;;;;;;7.60;3.85;;;;;;;3.10;69.39;99550.41;1737066;82;21293;-72
2021/04/24 01:25:42;;;;;;;7.30;3.47;;;;;;;3.02;69.55;99545.95;1752810;82;21743;-73
2021/04/24 01:28:11;;;;;;;6.62;3.35;;;;;;;2.96;69.73;99553.61;1753746;82;21119;-72
2021/04/24 01:30:43;;;;;;;4.30;3.05;;;;;;;3.04;69.58;99542.83;1743795;82;21293;-72
2021/04/24 01:33:12;;;;;;;6.15;3.40;;;;;;;3.08;69.63;99555.71;1730359;82;21139;-73
2021/04/24 01:35:42;;;;;;;4.85;3.25;;;;;;;2.97;69.65;99550.09;1740715;82;21155;-73
2021/04/24 01:38:09;;;;;;;5.25;3.50;;;;;;;2.93;70.06;99551.14;1740604;82;21320;-73
2021/04/24 01:40:36;;;;;;;5.22;3.30;;;;;;;2.85;70.03;99559.73;1743054;82;21195;-73
2021/04/24 01:43:06;;;;;;;5.92;3.87;;;;;;;2.85;70.13;99548.84;1742825;82;21730;-72
2021/04/24 01:45:35;;;;;;;5.60;3.50;;;;;;;3.05;69.74;99538.84;1740618;82;21570;-71
2021/04/24 01:48:06;;;;;;;5.28;3.22;;;;;;;3.08;69.72;99541.78;1736207;82;21655;-71
2021/04/24 01:50:42;;;;;;;7.03;3.67;;;;;;;3.00;70.07;99548.64;1725442;82;21187;-74
2021/04/24 01:53:13;;;;;;;5.03;3.65;;;;;;;2.91;70.10;99539.89;1752180;82;21191;-70
2021/04/24 01:55:40;;;;;;;6.87;3.40;;;;;;;2.83;70.36;99535.45;1748171;82;21310;-72
2021/04/24 01:58:11;;;;;;;6.65;3.85;;;;;;;2.82;70.77;99548.95;1737115;82;21318;-71
2021/04/24 02:00:46;;;;;;;8.33;3.80;;;;;;;2.92;70.57;99551.58;1739087;82;21194;-73
2021/04/24 02:03:15;;;;;;;8.78;4.22;;;;;;;2.87;70.90;99544.86;1745321;82;21156;-74
2021/04/24 02:05:45;;;;;;;9.75;4.33;;;;;;;2.76;71.02;99546.59;1752242;82;21281;-73
2021/04/24 02:08:20;;;;;;;8.35;4.67;;;;;;;2.70;71.24;99551.63;1748632;82;21528;-73
2021/04/24 02:10:53;;;;;;;7.80;4.33;;;;;;;2.68;71.25;99553.44;1740485;82;21167;-73
2021/04/24 02:13:25;;;;;;;6.00;3.98;;;;;;;2.80;71.07;99553.41;1751199;82;21273;-71
2021/04/24 02:15:56;;;;;;;7.33;4.22;;;;;;;2.98;70.76;99553.53;1750760;82;21122;-72
2021/04/24 02:18:25;;;;;;;5.35;3.40;;;;;;;2.95;70.72;99553.20;1723753;82;21116;-73
2021/04/24 02:20:53;;;;;;;9.03;3.90;;;;;;;2.92;70.90;99547.66;1723090;83;21280;-72
2021/04/24 02:23:20;;;;;;;6.10;3.77;;;;;;;2.88;70.95;99555.70;1742979;82;21175;-73
2021/04/24 02:25:48;;;;;;;9.25;4.53;;;;;;;2.82;71.28;99552.03;1753467;82;21131;-73
2021/04/24 02:28:15;;;;;;;8.93;4.65;;;;;;;2.85;71.19;99544.93;1753496;82;21190;-72
2021/04/24 02:30:44;;;;;;;7.70;4.55;;;;;;;2.96;70.92;99541.84;1752883;82;21154;-72
2021/04/24 02:33:13;;;;;;;8.53;4.33;;;;;;;2.89;71.05;99546.49;1745751;82;21123;-72
2021/04/24 02:35:53;;;;;;;7.15;4.10;;;;;;;2.78;71.36;99555.23;1753810;82;21147;-72
2021/04/24 02:38:30;;;;;;;7.08;3.92;;;;;;;2.72;71.64;99560.23;1752060;82;21273;-74
2021/04/24 02:41:02;;;;;;;6.53;3.15;;;;;;;2.76;71.70;99554.42;1746946;82;21695;-74
2021/04/24 02:43:29;;;;;;;5.37;3.40;;;;;;;2.96;71.41;99548.38;1730798;82;21175;-73
2021/04/24 02:46:02;;;;;;;6.15;4.00;;;;;;;2.99;71.33;99552.16;1751964;82;21151;-73
2021/04/24 02:48:31;;;;;;;5.65;3.60;;;;;;;2.96;71.69;99554.91;1752714;82;21170;-72
2021/04/24 02:51:00;;;;;;;5.67;3.65;;;;;;;2.98;71.65;99557.02;1721677;83;21159;-73
2021/04/24 02:53:29;;;;;;;5.35;3.50;;;;;;;2.96;71.54;99565.36;1738566;82;21305;-71
2021/04/24 02:55:57;;;;;;;6.95;3.58;;;;;;;2.92;71.62;99572.94;1738403;82;21184;-72
2021/04/24 02:58:27;;;;;;;9.80;3.75;;;;;;;3.07;71.25;99561.84;1738203;82;21744;-74
2021/04/24 03:00:58;;;;;;;5.25;3.55;;;;;;;3.13;71.17;99567.25;1752370;82;21139;-73
2021/04/24 03:03:26;;;;;;;4.92;3.33;;;;;;;3.09;71.30;99565.69;1751875;82;21321;-74
2021/04/24 03:05:57;;;;;;;8.50;4.00;;;;;;;3.01;71.44;99563.41;1738920;82;21171;-73
2021/04/24 03:08:24;;;;;;;5.17;2.98;;;;;;;2.99;71.65;99565.69;1739147;82;21581;-74
2021/04/24 03:10:52;;;;;;;7.53;3.95;;;;;;;3.11;71.43;99573.02;1723191;83;21210;-74
2021/04/24 03:13:20;;;;;;;6.83;3.58;;;;;;;3.48;70.68;99576.66;1742638;82;21142;-73
2021/04/24 03:15:50;;;;;;;8.20;3.85;;;;;;;3.77;70.13;99572.75;1747805;82;21135;-74
2021/04/24 03:18:19;;;;;;;6.70;4.05;;;;;;;4.04;69.66;99570.23;1743944;82;21176;-73
2021/04/24 03:20:47;;;;;;;7.10;3.85;;;;;;;4.08;69.13;99579.19;1737923;82;21120;-74
2021/04/24 03:23:16;;;;;;;10.72;4.05;;;;;;;4.03;69.13;99573.33;1738929;82;22136;-74
2021/04/24 03:25:44;;;;;;;5.33;3.50;;;;;;;4.13;68.98;99572.89;1738208;82;21151;-74
2021/04/24 03:28:14;;;;;;;7.28;3.60;;;;;;;4.31;68.36;99578.59;1738676;82;21629;-73
2021/04/24 03:30:41;;;;;;;5.17;3.50;;;;;;;4.58;68.00;99576.41;1738457;82;21163;-73
2021/04/24 03:33:08;;;;;;;5.17;3.42;;;;;;;4.94;67.34;99582.54;1738397;82;21180;-73
2021/04/24 03:35:40;;;;;;;6.95;4.00;;;;;;;5.33;66.33;99584.09;1723139;83;21173;-73
2021/04/24 03:38:07;;;;;;;6.60;4.00;;;;;;;5.62;65.45;99580.39;1723569;83;21745;-73
2021/04/24 03:40:35;;;;;;;8.23;3.95;;;;;;;5.74;64.76;99588.94;1723555;83;21151;-74
2021/04/24 03:43:02;;;;;;;7.53;3.65;;;;;;;5.56;64.34;99570.22;1723257;83;21663;-74
2021/04/24 03:45:31;;;;;;;9.03;3.55;;;;;;;5.45;64.57;99596.16;1741093;82;21159;-73
2021/04/24 03:47:58;;;;;;;6.10;3.55;;;;;;;5.30;64.85;99594.71;1749985;82;21175;-74
2021/04/24 03:50:27;;;;;;;5.50;3.52;;;;;;;5.35;64.83;99590.08;1749834;82;21650;-73
2021/04/24 03:52:58;;;;;;;6.67;3.60;;;;;;;5.22;65.02;99584.62;1749505;82;21560;-73
2021/04/24 03:55:27;;;;;;;6.85;3.90;;;;;;;5.11;65.30;99597.89;1746749;82;21296;-74
2021/04/24 03:57:55;;;;;;;5.58;3.70;;;;;;;5.03;65.64;99596.48;1746625;82;21151;-74
2021/04/24 04:00:26;;;;;;;6.80;3.85;;;;;;;4.89;65.44;99615.52;1747763;80;21156;-71
2021/04/24 04:03:01;;;;;;;7.75;3.70;;;;;;;4.79;65.64;99613.44;1785920;80;21761;-72
2021/04/24 04:05:36;;;;;;;5.17;3.60;;;;;;;4.74;65.91;99611.02;1748658;80;21276;-72
2021/04/24 04:08:05;;;;;;;6.17;3.35;;;;;;;4.80;65.66;99613.83;1725702;83;21604;-72
2021/04/24 04:10:34;;;;;;;7.65;3.92;;;;;;;4.75;65.95;99618.80;1760791;80;21583;-72
2021/04/24 04:13:02;;;;;;;6.03;3.83;;;;;;;4.64;65.84;99618.94;1767493;80;21139;-72
2021/04/24 04:15:29;;;;;;;5.75;3.60;;;;;;;4.59;66.34;99617.84;1743134;82;21186;-71
2021/04/24 04:18:04;;;;;;;6.70;4.05;;;;;;;4.62;66.49;99616.40;1742967;82;21321;-72
2021/04/24 04:20:32;;;;;;;5.33;3.30;;;;;;;4.64;66.34;99618.47;1745968;80;21183;-73
2021/04/24 04:23:01;;;;;;;7.67;4.10;;;;;;;4.82;66.15;99628.99;1743371;82;21155;-72
2021/04/24 04:25:28;;;;;;;7.92;4.45;;;;;;;4.91;65.81;99624.61;1756038;80;21610;-72
2021/04/24 04:27:55;;;;;;;8.85;4.00;;;;;;;4.90;65.91;99629.48;1755382;82;21261;-72
2021/04/24 04:30:25;;;;;;;5.95;3.83;;;;;;;4.81;65.64;99627.28;1742460;80;21162;-73
2021/04/24 04:32:53;;;;;;;8.53;4.25;;;;;;;4.67;66.15;99637.15;1741084;82;21141;-73
2021/04/24 04:35:21;;;;;;;7.22;3.50;;;;;;;4.67;66.53;99631.44;1750681;80;21163;-72
2021/04/24 04:37:48;;;;;;;7.92;4.22;;;;;;;4.89;66.34;99633.02;1789747;80;21587;-73
2021/04/24 04:40:15;;;;;;;7.37;4.08;;;;;;;5.13;66.04;99635.34;1759940;80;21166;-72
2021/04/24 04:42:44;;;;;;;6.70;3.60;;;;;;;5.18;65.52;99633.34;1746694;82;21130;-73
2021/04/24 04:45:12;;;;;;;5.65;3.37;;;;;;;5.09;65.40;99622.41;1743101;82;21159;-72
2021/04/24 04:47:39;;;;;;;6.85;3.77;;;;;;;5.02;65.38;99626.23;1743139;82;21651;-73
2021/04/24 04:50:11;;;;;;;9.50;3.70;;;;;;;4.85;65.88;99632.80;1771760;80;21464;-72
2021/04/24 04:52:38;;;;;;;6.70;3.85;;;;;;;4.80;66.65;99621.69;1789508;80;21665;-72
2021/04/24 04:55:09;;;;;;;6.45;3.90;;;;;;;4.91;66.81;99631.16;1749016;80;21173;-71
2021/04/24 04:57:37;;;;;;;7.92;3.77;;;;;;;4.96;66.85;99638.80;1743078;82;21180;-72
2021/04/24 05:00:10;;;;;;;5.58;3.60;;;;;;;5.08;67.13;99633.80;1770869;80;21134;-73
2021/04/24 05:02:39;;;;;;;7.23;4.00;;;;;;;5.18;66.76;99639.45;1747840;80;21151;-72
2021/04/24 05:05:08;;;;;;;6.10;3.30;;;;;;;5.22;66.62;99632.28;1738578;82;21791;-72
2021/04/24 05:07:37;;;;;;;7.80;3.58;;;;;;;5.29;66.49;99619.23;1732508;81;21292;-72
2021/04/24 05:10:07;;;;;;;6.97;3.52;;;;;;;5.42;66.29;99619.45;1734930;80;21156;-72
2021/04/24 05:12:36;;;;;;;7.10;3.20;;;;;;;5.39;66.49;99632.27;1739425;82;21167;-72
2021/04/24 05:15:05;;;;;;;5.80;3.00;;;;;;;5.36;66.11;99632.43;1750176;82;21138;-72
2021/04/24 05:17:32;;;;;;;7.55;3.20;;;;;;;5.31;65.42;99626.57;1747367;80;21293;-73
2021/04/24 05:19:59;;;;;;;4.17;3.05;;;;;;;5.30;65.59;99630.11;1738387;82;21135;-72
2021/04/24 05:22:28;;;;;;;5.87;3.00;;;;;;;5.38;65.91;99626.66;1745629;81;21187;-72
2021/04/24 05:24:58;;;;;;;4.37;2.72;;;;;;;5.60;65.56;99627.31;1755282;82;21190;-73
2021/04/24 05:27:27;;;;;;;4.67;3.00;;;;;;;5.66;65.40;99633.08;1743478;82;21198;-72
2021/04/24 05:29:55;;;;;;;5.00;3.40;;;;;;;5.73;65.20;99637.09;1742961;82;21241;-72
2021/04/24 05:32:22;;;;;;;6.12;3.58;;;;;;;5.95;65.46;99617.59;1738476;82;21166;-73
2021/04/24 05:34:50;;;;;;;5.42;3.30;;;;;;;6.34;64.37;99619.03;1725363;83;21622;-73
2021/04/24 05:37:17;;;;;;;7.28;3.30;;;;;;;6.67;63.88;99612.81;1725788;82;21222;-74
2021/04/24 05:39:45;;;;;;;6.50;3.50;;;;;;;6.87;63.06;99625.31;1745391;80;21540;-72
2021/04/24 05:42:13;;;;;;;5.28;3.45;;;;;;;6.81;61.18;99612.03;1747712;82;21117;-72
2021/04/24 05:44:42;;;;;;;6.35;3.62;;;;;;;6.60;62.25;99625.94;1751864;80;21171;-73
2021/04/24 05:47:09;;;;;;;5.75;3.40;;;;;;;6.52;62.75;99625.50;1734683;80;21200;-73
2021/04/24 05:49:36;;;;;;;5.33;3.42;;;;;;;6.53;62.20;99630.69;1756118;81;21150;-73
2021/04/24 05:52:06;;;;;;;4.35;3.52;;;;;;;6.58;61.62;99627.79;1759255;81;21194;-73
2021/04/24 05:54:33;;;;;;;6.67;3.35;;;;;;;6.46;61.53;99632.40;1751855;82;21220;-74
2021/04/24 05:57:01;;;;;;;6.80;4.30;;;;;;;6.27;60.43;99632.11;1761380;81;21236;-73
2021/04/24 06:02:30;;;;;;;7.42;3.87;;;;;;;6.04;61.70;99636.81;1779932;79;22427;-74
2021/04/24 06:04:57;;;;;;;9.80;4.30;;;;;;;5.96;61.64;99632.42;1734122;82;21183;-73
2021/04/24 06:07:25;;;;;;;6.67;3.70;;;;;;;5.93;61.99;99627.80;1752947;82;21819;-73
2021/04/24 06:09:54;;;;;;;4.95;3.37;;;;;;;5.92;62.23;99632.20;1739121;82;21084;-73
2021/04/24 06:12:22;;;;;;;5.17;3.35;;;;;;;5.94;61.97;99631.64;1740790;82;21275;-73
2021/04/24 06:14:51;;;;;;;4.12;3.22;;;;;;;6.09;61.82;99630.46;1711722;82;21296;-73
2021/04/24 06:17:19;;;;;;;6.78;3.10;;;;;;;6.19;60.30;99635.59;1651471;87;21182;-72
2021/04/24 06:19:46;;;;;;;7.03;3.70;;;;;;;6.30;60.08;99633.72;1656450;86;21198;-73
2021/04/24 06:22:13;;;;;;;7.22;4.10;;;;;;;6.52;60.26;99636.00;1678635;85;21202;-74
2021/04/24 06:24:40;;;;;;;6.10;3.70;;;;;;;6.78;59.30;99620.55;1681603;85;21383;-74
2021/04/24 06:27:08;;;;;;;7.37;3.45;;;;;;;6.91;57.40;99629.45;1711109;83;21579;-73
2021/04/24 06:29:35;;;;;;;4.05;2.90;;;;;;;6.99;58.57;99623.27;1701477;83;21564;-74
2021/04/24 06:32:03;;;;;;;6.72;3.50;;;;;;;7.16;56.15;99613.56;1694444;83;21543;-74
2021/04/24 06:34:31;;;;;;;5.55;3.12;;;;;;;7.28;56.73;99625.17;1695675;83;21175;-73
2021/04/24 06:36:58;;;;;;;17.98;4.35;;;;;;;7.44;56.05;99625.10;1718922;83;21175;-71
2021/04/24 06:39:26;;;;;;;4.35;2.87;;;;;;;7.54;54.44;99616.58;1719070;83;21167;-72
2021/04/24 06:41:53;;;;;;;6.85;2.60;;;;;;;7.64;54.54;99623.44;1721293;82;21187;-73
2021/04/24 06:44:22;;;;;;;4.28;2.50;;;;;;;7.81;51.83;99618.94;1717605;83;21162;-72
2021/04/24 06:46:49;;;;;;;4.60;2.72;;;;;;;7.92;50.52;99619.13;1720479;83;21190;-73
2021/04/24 06:49:18;;;;;;;7.37;5.05;;;;;;;8.03;50.44;99615.82;1720015;83;21186;-74
2021/04/24 06:51:45;;;;;;;4.40;2.40;;;;;;;8.01;48.73;99621.19;1712010;83;21290;-74
2021/04/24 06:54:13;;;;;;;3.83;2.35;;;;;;;7.96;48.07;99616.67;1677111;85;21143;-75
2021/04/24 06:56:40;;;;;;;3.72;2.30;;;;;;;8.03;48.26;99618.00;1677195;84;21683;-74
2021/04/24 06:59:08;;;;;;;3.30;2.20;;;;;;;8.16;47.18;99622.52;1687969;85;21611;-73
2021/04/24 07:01:37;;;;;;;3.00;2.05;;;;;;;8.22;46.62;99627.86;1667061;85;21583;-73
2021/04/24 07:04:06;;;;;;;2.87;2.02;;;;;;;8.34;46.65;99625.30;1654812;87;21206;-74
2021/04/24 07:06:35;;;;;;;3.92;2.47;;;;;;;8.48;45.64;99622.30;1676847;85;21332;-73
2021/04/24 07:09:07;;;;;;;3.05;1.90;;;;;;;8.52;46.24;99622.48;1692894;83;21268;-74
2021/04/24 07:11:36;;;;;;;7.78;2.45;;;;;;;8.55;44.66;99626.23;1713617;83;21143;-74
2021/04/24 07:14:04;;;;;;;2.90;1.70;;;;;;;8.43;43.70;99633.58;1709747;83;21163;-74
2021/04/24 07:16:31;;;;;;;2.42;1.60;;;;;;;8.22;44.83;99628.69;1747875;82;21214;-74
2021/04/24 07:18:58;;;;;;;3.00;1.75;;;;;;;8.03;42.75;99627.22;1716149;82;21200;-73
2021/04/24 07:21:27;;;;;;;3.00;1.70;;;;;;;7.84;43.72;99638.52;1702339;83;21560;-74
2021/04/24 07:23:55;;;;;;;3.45;1.72;;;;;;;7.52;43.74;99630.77;1703954;83;21639;-74
2021/04/24 07:26:25;;;;;;;3.35;2.12;;;;;;;7.26;45.45;99635.77;1695479;83;21172;-74
2021/04/24 07:28:52;;;;;;;2.47;1.90;;;;;;;7.29;46.35;99634.28;1702978;83;21149;-74
2021/04/24 07:31:22;;;;;;;4.87;1.65;;;;;;;7.45;45.36;99640.79;1710105;83;21725;-75
2021/04/24 07:33:52;;;;;;;6.95;3.98;;;;;;;7.70;43.47;99629.65;1691510;83;21151;-74
2021/04/24 07:36:22;;;;;;;2.37;1.80;;;;;;;7.86;42.70;99632.66;1696741;83;21220;-74
2021/04/24 07:38:50;;;;;;;5.80;1.95;;;;;;;7.85;42.29;99644.13;1715998;83;21163;-74
2021/04/24 07:41:17;;;;;;;2.02;1.60;;;;;;;7.92;43.89;99645.46;1707087;83;21646;-74
2021/04/24 07:43:44;;;;;;;3.58;1.80;;;;;;;8.06;41.77;99634.53;1689872;83;21160;-74
2021/04/24 07:46:12;;;;;;;6.72;1.90;;;;;;;7.95;43.51;99636.05;1693854;83;21156;-74
2021/04/24 07:48:40;;;;;;;4.70;2.10;;;;;;;7.84;41.99;99638.52;1674049;86;21208;-73
2021/04/24 07:51:09;;;;;;;2.65;1.50;;;;;;;7.65;42.75;99645.36;1685213;84;21305;-73
2021/04/24 07:53:38;;;;;;;2.95;2.00;;;;;;;7.44;43.53;99649.61;1695720;84;21318;-73
2021/04/24 07:56:05;;;;;;;2.27;1.42;;;;;;;7.23;41.12;99653.53;1705065;83;21187;-73
2021/04/24 07:58:33;;;;;;;3.30;2.02;;;;;;;6.98;40.71;99666.75;1714104;83;21229;-72
2021/04/24 08:01:01;;;;;;;4.58;2.70;;;;;;;6.94;42.19;99654.24;1707783;83;21201;-73
2021/04/24 08:03:30;;;;;;;3.12;1.80;;;;;;;7.16;42.22;99658.27;1707162;84;21631;-73
2021/04/24 08:05:59;;;;;;;5.45;2.22;;;;;;;7.46;43.27;99659.59;1708249;84;21116;-73
2021/04/24 08:08:26;;;;;;;1.67;1.42;;;;;;;7.80;41.61;99648.83;1709943;84;21346;-73
2021/04/24 08:10:55;;;;;;;3.92;2.00;;;;;;;7.70;41.34;99654.66;1702652;84;22172;-72
2021/04/24 08:13:23;;;;;;;3.85;2.20;;;;;;;7.63;41.89;99659.90;1701109;84;21134;-73
2021/04/24 08:15:50;;;;;;;7.80;3.12;;;;;;;7.74;42.71;99662.36;1693023;84;21621;-74
2021/04/24 08:18:17;;;;;;;3.08;1.90;;;;;;;7.90;41.55;99662.30;1696728;84;21137;-73
2021/04/24 08:20:44;;;;;;;3.90;1.55;;;;;;;7.75;39.91;99666.69;1699488;84;21139;-76
2021/04/24 08:23:14;;;;;;;19.65;3.90;;;;;;;7.47;41.51;99665.72;1704555;83;21143;-74
2021/04/24 08:25:41;;;;;;;2.55;1.60;;;;;;;7.43;43.01;99662.87;1699211;84;21287;-77
2021/04/24 08:28:08;;;;;;;2.02;1.40;;;;;;;7.59;43.38;99666.29;1700624;84;21580;-73
2021/04/24 08:30:36;;;;;;;2.33;1.52;;;;;;;7.85;41.01;99671.33;1702915;84;21177;-73
2021/04/24 08:33:05;;;;;;;2.40;1.85;;;;;;;7.94;40.07;99658.08;1702889;84;21298;-73
2021/04/24 08:35:33;;;;;;;4.40;1.80;;;;;;;7.88;40.15;99654.50;1709676;84;21309;-74
2021/04/24 08:38:00;;;;;;;3.42;1.70;;;;;;;7.97;41.04;99656.56;1708611;84;21155;-74
2021/04/24 08:40:27;;;;;;;2.15;1.50;;;;;;;8.12;41.80;99649.97;1704021;84;21119;-74
2021/04/24 08:42:56;;;;;;;3.80;1.82;;;;;;;8.03;40.13;99674.63;1697413;83;21166;-73
2021/04/24 08:45:26;;;;;;;3.33;1.60;;;;;;;7.80;39.31;99680.42;1696608;84;21291;-73
2021/04/24 08:47:54;;;;;;;2.55;1.92;;;;;;;7.62;39.74;99677.97;1707965;82;21152;-73
2021/04/24 08:50:26;;;;;;;8.00;2.72;;;;;;;7.71;39.97;99672.16;1698916;83;21657;-73
2021/04/24 08:52:53;;;;;;;2.80;2.02;;;;;;;7.94;40.18;99672.56;1695519;84;21209;-73
2021/04/24 08:55:23;;;;;;;6.80;2.58;;;;;;;8.17;40.82;99668.97;1695568;84;21209;-73
2021/04/24 08:57:51;;;;;;;3.35;1.85;;;;;;;8.39;40.80;99671.59;1694407;84;21151;-73
2021/04/24 09:00:23;;;;;;;2.70;1.77;;;;;;;8.58;40.08;99674.81;1706550;84;21750;-73
2021/04/24 09:02:50;;;;;;;2.40;1.35;;;;;;;8.72;38.97;99665.16;1685643;84;21165;-73
2021/04/24 09:05:19;;;;;;;2.25;1.60;;;;;;;8.84;38.65;99665.22;1692433;84;21143;-74
2021/04/24 09:07:46;;;;;;;3.85;1.40;;;;;;;8.99;38.25;99677.89;1666690;85;21207;-73
2021/04/24 09:34:41;;;;;;;2.62;1.77;;;;;;;7.16;44.16;99622.77;1780163;79;22930;-73
2021/04/24 09:37:22;;;;;;;4.12;2.00;;;;;;;7.44;43.49;99688.25;1752396;82;21587;-73
2021/04/24 09:39:52;;;;;;;4.78;1.60;;;;;;;7.28;44.03;99683.88;1742221;82;21278;-73
2021/04/24 09:42:39;;;;;;;6.87;2.00;;;;;;;7.04;44.79;99693.53;1741655;82;21159;-73
2021/04/24 09:45:38;;;;;;;3.45;1.60;;;;;;;6.96;45.79;99695.77;1723117;83;21155;-73
2021/04/24 09:48:05;;;;;;;2.08;1.60;;;;;;;7.07;45.12;99683.80;1724811;82;21171;-73
2021/04/24 09:50:35;;;;;;;6.40;1.82;;;;;;;7.16;45.17;99695.09;1747999;82;21571;-73
2021/04/24 09:53:25;;;;;;;3.52;1.40;;;;;;;7.33;44.59;99679.20;1717460;82;21192;-73
2021/04/24 09:55:57;;;;;;;4.08;2.20;;;;;;;7.64;43.07;99681.34;1711288;83;21123;-74
2021/04/24 09:58:31;;;;;;;4.67;1.85;;;;;;;7.94;42.18;99680.91;1706726;83;21690;-73
2021/04/24 10:01:25;;;;;;;2.60;1.90;;;;;;;8.07;40.77;99666.52;1723228;83;21202;-74
2021/04/24 10:03:54;;;;;;;7.40;2.37;;;;;;;7.95;43.56;99702.36;1719802;83;22349;-75
2021/04/24 10:06:32;;;;;;;8.63;2.70;;;;;;;7.76;43.68;99693.40;1702082;83;21658;-76
2021/04/24 10:09:27;;;;;;;6.78;1.90;;;;;;;7.44;44.44;99694.34;1709908;83;21190;-73
2021/04/24 10:12:05;;;;;;;3.37;1.57;;;;;;;7.27;44.39;99701.07;1679470;85;21324;-74
2021/04/24 10:14:44;;;;;;;6.75;2.75;;;;;;;7.21;44.34;99693.05;1679627;85;21683;-74
2021/04/24 10:17:16;;;;;;;5.08;2.30;;;;;;;7.36;44.15;99684.27;1718068;83;21179;-73
2021/04/24 10:19:49;;;;;;;5.67;2.20;;;;;;;7.62;43.56;99695.53;1706162;83;22229;-77
2021/04/24 10:22:20;;;;;;;3.72;1.77;;;;;;;7.72;42.73;99683.52;1703559;83;21864;-74
2021/04/24 10:24:51;;;;;;;4.10;1.52;;;;;;;7.69;43.90;99692.44;1626380;87;21175;-73
2021/04/24 10:27:20;;;;;;;4.10;1.70;;;;;;;7.59;43.13;99707.08;1656263;87;21744;-75
2021/04/24 10:29:48;;;;;;;2.80;1.60;;;;;;;7.45;42.11;99697.36;1677369;85;21626;-75
2021/04/24 10:32:15;;;;;;;2.20;1.37;;;;;;;7.40;42.58;99707.79;1677357;85;21691;-74
2021/04/24 10:34:43;;;;;;;1.67;1.37;;;;;;;7.31;41.89;99703.42;1664242;85;21771;-74
2021/04/24 10:37:10;;;;;;;1.77;1.30;;;;;;;7.39;42.07;99712.19;1663298;86;21599;-74
2021/04/24 10:39:45;;;;;;;2.60;1.52;;;;;;;7.61;43.07;99703.91;1663215;86;21227;-75
2021/04/24 10:42:21;;;;;;;2.40;1.50;;;;;;;7.88;41.71;99705.36;1665163;86;21666;-76
2021/04/24 10:45:06;;;;;;;2.15;1.37;;;;;;;8.07;39.90;99698.13;1663868;86;21136;-76
2021/04/24 10:47:51;;;;;;;2.25;1.70;;;;;;;8.20;40.33;99697.29;1661120;86;21205;-75
2021/04/24 10:50:42;;;;;;;2.40;1.60;;;;;;;8.29;40.49;99702.47;1663778;86;21809;-75
2021/04/24 10:53:26;;;;;;;1.40;1.23;;;;;;;8.28;39.99;99706.52;1678632;85;21179;-75
2021/04/24 10:56:01;;;;;;;2.02;1.45;;;;;;;8.20;39.90;99706.99;1679159;85;21305;-75
2021/04/24 10:59:24;;;;;;;1.50;1.40;;;;;;;8.09;40.03;99702.84;1897285;75;24002;-75
2021/04/24 11:02:05;;;;;;;1.32;1.22;;;;;;;8.03;38.96;99704.91;1864805;77;21166;-75
2021/04/24 11:04:50;;;;;;;1.55;1.42;;;;;;;7.88;38.99;99706.67;1858721;77;21555;-75
2021/04/24 11:07:24;;;;;;;2.02;1.55;;;;;;;7.85;38.73;99695.47;1841905;77;21370;-75
2021/04/24 11:10:17;;;;;;;4.30;1.52;;;;;;;8.08;40.74;99699.83;1832714;77;21602;-75
2021/04/24 11:12:47;;;;;;;13.78;2.45;;;;;;;8.45;39.45;99702.83;1864364;77;21193;-76
2021/04/24 11:15:17;;;;;;;2.50;1.72;;;;;;;8.83;36.84;99692.53;1854513;77;21713;-75
2021/04/24 11:17:46;;;;;;;2.33;1.60;;;;;;;9.13;37.84;99701.20;1841628;77;21166;-75
2021/04/24 11:20:54;;;;;;;1.42;1.27;;;;;;;9.35;36.72;99702.81;1840631;77;21150;-73
2021/04/24 11:23:41;;;;;;;3.25;1.75;;;;;;;9.50;37.60;99701.41;1814747;78;21147;-74
2021/04/24 11:26:13;;;;;;;3.17;1.50;;;;;;;9.64;35.73;99700.03;1790639;78;21248;-74
2021/04/24 11:29:03;;;;;;;2.45;1.70;;;;;;;9.56;36.06;99701.00;1801670;77;21148;-74
2021/04/24 11:31:57;;;;;;;2.33;1.62;;;;;;;9.56;36.77;99694.41;1804305;78;21183;-74
2021/04/24 11:34:57;;;;;;;6.78;2.05;;;;;;;9.63;38.17;99707.58;1823776;77;21570;-74
2021/04/24 11:37:26;;;;;;;3.87;1.80;;;;;;;9.82;37.42;99693.98;1689397;84;21222;-73
2021/04/24 11:40:18;;;;;;;3.90;1.55;;;;;;;9.93;36.59;99693.23;1684452;84;21209;-73
2021/04/24 11:43:02;;;;;;;2.25;1.30;;;;;;;9.91;33.95;99683.72;1652438;86;21645;-74
2021/04/24 11:45:53;;;;;;;3.05;1.70;;;;;;;9.77;35.47;99697.86;1652355;86;21238;-73
2021/04/24 11:48:49;;;;;;;2.20;1.50;;;;;;;9.81;35.68;99699.38;1644713;86;21250;-73
2021/04/24 11:51:31;;;;;;;2.12;1.32;;;;;;;9.87;36.04;99697.61;1656322;86;21607;-73
2021/04/24 11:54:01;;;;;;;5.90;1.60;;;;;;;10.02;33.63;99678.55;1672656;85;21218;-73
2021/04/24 11:56:28;;;;;;;1.62;1.30;;;;;;;10.14;33.43;99694.02;1671023;85;21786;-74
2021/04/24 11:58:55;;;;;;;4.92;2.22;;;;;;;10.05;31.83;99685.41;1667027;85;21194;-73
2021/04/24 12:01:25;;;;;;;6.95;2.17;;;;;;;9.62;33.28;99677.32;1670774;85;21251;-73
2021/04/24 12:03:54;;;;;;;2.90;1.95;;;;;;;9.44;36.32;99690.80;1665707;85;21191;-73
2021/04/24 12:06:42;;;;;;;4.70;1.95;;;;;;;9.59;35.81;99688.94;1668674;85;21225;-73
2021/04/24 12:09:14;;;;;;;4.30;1.90;;;;;;;9.79;35.80;99680.13;1667885;85;21239;-73
2021/04/24 12:11:55;;;;;;;3.08;1.75;;;;;;;10.04;35.82;99689.86;1668010;85;21214;-74
2021/04/24 12:14:27;;;;;;;4.87;1.90;;;;;;;10.20;33.95;99686.98;1649400;85;21233;-73
2021/04/24 12:16:54;;;;;;;2.00;1.35;;;;;;;10.12;35.17;99689.33;1668173;85;21325;-74
2021/04/24 12:19:29;;;;;;;11.93;2.20;;;;;;;9.85;35.68;99695.56;1660442;85;21244;-73
2021/04/24 12:22:07;;;;;;;2.47;1.52;;;;;;;9.53;36.04;99686.70;1631755;87;21837;-74
2021/04/24 12:24:53;;;;;;;1.50;1.37;;;;;;;9.35;36.48;99696.21;1656809;85;21199;-75
2021/04/24 12:27:40;;;;;;;1.92;1.47;;;;;;;9.33;35.94;99693.30;1671846;85;21317;-74